Time;durP1;ratioP1;P1;durP2;ratioP2;P2;SDS_P1;SDS_P2;PMS_P1;PMS_P2;Temp;Humidity;BMP_temperature;BMP_pressure;BME280_temperature;BME280_humidity;BME280_pressure;Samples;Min_cycle;Max_cycle;Signal;HPM_P1;HPM_P2
2022/01/06 00:01:41;;;;;;;2.33;1.75;;;;;;;18.10;29.61;97134.00;5069299;28;20036;-62
2022/01/06 00:04:06;;;;;;;3.72;1.95;;;;;;;18.16;29.58;97135.75;5069174;28;20250;-62
2022/01/06 00:06:37;;;;;;;2.65;1.80;;;;;;;18.21;29.68;97140.44;5058451;28;20029;-62
2022/01/06 00:09:05;;;;;;;2.53;2.10;;;;;;;18.25;29.74;97144.25;5074415;28;20134;-63
2022/01/06 00:11:31;;;;;;;3.65;1.67;;;;;;;18.29;29.71;97138.25;5069137;28;20028;-63
2022/01/06 00:14:03;;;;;;;3.28;1.55;;;;;;;18.35;29.69;97143.72;5086724;28;20021;-63
2022/01/06 00:24:27;;;;;;;4.45;1.38;;;;;;;18.55;29.67;97144.22;5086982;28;20256;-63
2022/01/06 00:26:53;;;;;;;1.95;1.20;;;;;;;18.57;29.60;97154.69;5071919;28;20049;-63
2022/01/06 00:29:19;;;;;;;1.98;1.52;;;;;;;18.61;29.74;97148.63;5068564;28;20025;-63
2022/01/06 00:31:45;;;;;;;3.45;1.30;;;;;;;18.67;29.73;97156.78;5069589;28;20029;-63
2022/01/06 00:34:11;;;;;;;2.17;1.27;;;;;;;18.72;29.66;97162.28;5068719;28;20245;-63
2022/01/06 00:36:38;;;;;;;2.10;1.13;;;;;;;18.74;29.54;97147.59;5079655;28;20032;-63
2022/01/06 00:39:04;;;;;;;2.33;1.45;;;;;;;18.78;29.67;97149.81;5070824;28;20052;-63
2022/01/06 00:41:33;;;;;;;2.10;1.58;;;;;;;18.80;29.66;97156.56;5085211;28;20031;-63
2022/01/06 00:43:58;;;;;;;2.00;1.20;;;;;;;18.82;29.65;97149.13;5068316;28;20281;-61
2022/01/06 00:46:24;;;;;;;3.25;1.27;;;;;;;18.83;29.76;97153.44;5068245;28;20025;-63
2022/01/06 00:48:49;;;;;;;1.80;1.40;;;;;;;18.87;29.55;97153.78;5068131;28;20025;-62
2022/01/06 00:51:15;;;;;;;1.77;1.30;;;;;;;18.89;29.38;97162.41;5067782;28;20229;-64
2022/01/06 00:53:41;;;;;;;2.35;1.45;;;;;;;18.92;29.46;97165.41;5050668;28;20226;-63
2022/01/06 00:56:06;;;;;;;2.33;1.38;;;;;;;18.96;29.31;97167.66;5069134;28;20039;-64
2022/01/06 00:58:32;;;;;;;2.53;1.60;;;;;;;18.97;29.33;97164.75;5088116;28;20039;-63
2022/01/06 01:00:58;;;;;;;2.13;1.52;;;;;;;19.01;29.31;97171.28;5088154;28;20241;-63
2022/01/06 01:03:24;;;;;;;2.00;1.33;;;;;;;19.04;29.13;97164.66;5074875;28;20157;-63
2022/01/06 01:05:52;;;;;;;2.40;1.42;;;;;;;19.05;29.22;97158.22;5072203;28;20029;-63
2022/01/06 01:08:18;;;;;;;1.60;0.93;;;;;;;19.10;29.22;97161.00;5066507;28;20040;-63
2022/01/06 01:10:44;;;;;;;3.08;1.40;;;;;;;19.13;29.38;97163.22;5067271;28;20028;-62
2022/01/06 01:13:12;;;;;;;1.77;1.38;;;;;;;19.16;29.30;97165.44;5066547;28;20071;-63
2022/01/06 01:15:53;;;;;;;1.95;1.30;;;;;;;19.17;29.23;97169.75;5066479;28;20017;-63
2022/01/06 01:18:20;;;;;;;2.22;1.20;;;;;;;19.18;29.14;97168.72;5065845;28;20136;-63
2022/01/06 01:20:47;;;;;;;2.40;1.85;;;;;;;19.19;29.24;97164.16;5066257;28;20430;-63
2022/01/06 01:23:13;;;;;;;1.30;1.10;;;;;;;19.24;29.14;97166.13;5066703;28;20082;-63
2022/01/06 01:25:38;;;;;;;1.55;1.17;;;;;;;19.25;29.27;97173.13;5066486;28;20200;-63
2022/01/06 01:28:04;;;;;;;1.80;1.10;;;;;;;19.27;29.10;97176.38;5066230;28;20025;-63
2022/01/06 01:30:38;;;;;;;1.50;1.00;;;;;;;19.28;29.21;97170.78;5066230;28;20021;-63
2022/01/06 01:33:13;;;;;;;2.08;1.20;;;;;;;19.31;29.14;97164.94;5066110;28;20104;-62
2022/01/06 01:35:39;;;;;;;1.92;1.23;;;;;;;19.32;29.12;97160.41;5066303;28;20119;-63
2022/01/06 01:38:04;;;;;;;2.45;1.15;;;;;;;19.34;28.95;97167.16;5061933;28;20031;-61
2022/01/06 01:40:30;;;;;;;1.45;1.02;;;;;;;19.36;29.17;97166.91;5066247;28;20017;-61
2022/01/06 01:42:55;;;;;;;1.85;1.13;;;;;;;19.38;28.99;97170.19;5066112;28;20021;-61
2022/01/06 01:45:27;;;;;;;1.80;1.23;;;;;;;19.40;29.13;97161.91;5066175;28;20110;-61
2022/01/06 01:47:53;;;;;;;1.38;1.10;;;;;;;19.43;29.11;97164.94;5065753;28;20078;-61
2022/01/06 01:50:20;;;;;;;1.60;1.08;;;;;;;19.44;29.15;97158.53;5065830;28;20033;-63
2022/01/06 01:52:56;;;;;;;1.50;1.00;;;;;;;19.48;29.09;97165.03;5065770;28;20088;-60
2022/01/06 01:55:24;;;;;;;2.05;0.98;;;;;;;19.50;29.19;97160.25;5065847;28;20074;-60
2022/01/06 01:57:51;;;;;;;1.55;0.98;;;;;;;19.51;29.12;97156.50;5065460;28;20025;-60
2022/01/06 02:00:22;;;;;;;3.28;1.13;;;;;;;19.54;29.17;97163.28;5062287;28;20176;-59
2022/01/06 02:02:48;;;;;;;1.15;0.80;;;;;;;19.56;29.06;97165.72;5065792;28;20063;-60
2022/01/06 02:05:13;;;;;;;3.10;1.00;;;;;;;19.59;29.28;97163.38;5066484;28;20036;-60
2022/01/06 02:07:41;;;;;;;2.45;1.10;;;;;;;19.60;29.14;97167.69;5066660;28;20044;-60
2022/01/06 02:10:09;;;;;;;1.75;1.13;;;;;;;19.63;28.94;97167.22;5066870;28;20096;-58
2022/01/06 02:12:38;;;;;;;1.35;1.00;;;;;;;19.64;29.01;97160.78;5066914;28;20048;-60
2022/01/06 02:15:09;;;;;;;1.15;0.75;;;;;;;19.67;28.86;97167.53;5066850;28;20241;-60
2022/01/06 02:17:36;;;;;;;1.65;0.93;;;;;;;19.67;28.94;97167.53;5066401;28;20041;-61
2022/01/06 02:20:07;;;;;;;1.58;0.90;;;;;;;19.71;28.56;97165.19;5066490;28;20036;-60
2022/01/06 02:22:33;;;;;;;3.35;1.00;;;;;;;19.72;28.83;97162.28;5066719;28;20116;-61
2022/01/06 02:25:09;;;;;;;1.42;1.00;;;;;;;19.75;28.89;97161.00;5066712;28;20040;-61
2022/01/06 02:27:35;;;;;;;2.40;1.10;;;;;;;19.76;28.59;97166.13;5066708;28;20165;-61
2022/01/06 02:30:00;;;;;;;1.42;0.95;;;;;;;19.80;28.72;97167.25;5066610;28;20025;-60
2022/01/06 02:32:26;;;;;;;1.15;0.90;;;;;;;19.81;28.69;97168.09;5066566;28;20092;-61
2022/01/06 02:34:51;;;;;;;1.23;0.90;;;;;;;19.82;28.71;97173.22;5066630;28;20115;-61
2022/01/06 02:37:17;;;;;;;1.90;1.20;;;;;;;19.84;28.51;97175.69;5066507;28;20016;-61
2022/01/06 02:39:44;;;;;;;1.25;0.90;;;;;;;19.87;28.46;97174.41;5066553;28;20052;-60
2022/01/06 02:42:10;;;;;;;1.67;0.93;;;;;;;19.88;28.40;97178.72;5066515;28;20060;-61
2022/01/06 02:44:38;;;;;;;1.25;0.90;;;;;;;19.90;28.54;97187.34;5066582;28;20036;-61
2022/01/06 02:47:05;;;;;;;0.98;0.80;;;;;;;19.92;28.83;97190.63;5066396;28;20252;-61
2022/01/06 02:49:31;;;;;;;2.38;1.20;;;;;;;19.92;28.81;97190.63;5066808;28;20025;-60
2022/01/06 02:51:57;;;;;;;1.27;0.90;;;;;;;19.94;28.59;97193.84;5066250;28;20233;-60
2022/01/06 02:54:23;;;;;;;0.93;0.80;;;;;;;19.94;28.54;97185.78;5066470;28;20092;-61
2022/01/06 02:56:48;;;;;;;1.75;0.88;;;;;;;19.96;28.65;97187.22;5066298;28;20200;-61
2022/01/06 02:59:15;;;;;;;1.60;1.05;;;;;;;19.98;28.79;97189.63;5066529;28;20052;-61
2022/01/06 03:01:43;;;;;;;1.70;1.10;;;;;;;19.98;28.61;97192.31;5066377;28;20134;-61
2022/01/06 03:04:09;;;;;;;1.17;0.90;;;;;;;20.01;28.38;97188.34;5067366;28;20028;-59
2022/01/06 03:06:35;;;;;;;1.80;1.00;;;;;;;20.02;28.68;97188.13;5070255;28;20039;-60
2022/01/06 03:09:00;;;;;;;1.35;0.90;;;;;;;20.04;28.92;97198.59;5070341;28;20173;-60
2022/01/06 03:11:27;;;;;;;1.50;1.00;;;;;;;20.06;28.60;97197.31;5087924;28;20113;-60
2022/01/06 03:13:53;;;;;;;1.00;0.80;;;;;;;20.08;28.70;97191.69;5090447;28;20048;-61
2022/01/06 03:16:19;;;;;;;2.03;0.88;;;;;;;20.10;28.64;97194.97;5090037;28;20032;-60
2022/01/06 03:18:45;;;;;;;1.25;0.82;;;;;;;20.10;28.63;97192.28;5079997;28;20170;-60
2022/01/06 03:21:10;;;;;;;0.95;0.70;;;;;;;20.15;28.85;97194.25;5070025;28;20033;-60
2022/01/06 03:23:36;;;;;;;0.80;0.50;;;;;;;20.17;28.76;97197.50;5070113;28;20048;-60
2022/01/06 03:26:01;;;;;;;1.13;0.70;;;;;;;20.19;28.75;97206.13;5069935;28;20037;-60
2022/01/06 03:28:27;;;;;;;1.13;0.68;;;;;;;20.20;28.80;97207.75;5069963;28;20106;-61
2022/01/06 03:30:52;;;;;;;0.95;0.75;;;;;;;20.20;28.77;97203.19;5069995;28;20086;-60
2022/01/06 03:33:18;;;;;;;1.30;0.73;;;;;;;20.21;28.64;97204.84;5069941;28;20041;-60
2022/01/06 03:35:43;;;;;;;0.52;0.52;;;;;;;20.22;28.89;97205.66;5069771;28;20059;-59
2022/01/06 03:38:09;;;;;;;0.88;0.65;;;;;;;20.25;28.81;97213.22;5069770;28;20033;-60
2022/01/06 03:40:35;;;;;;;1.55;0.80;;;;;;;20.26;28.86;97214.84;5069739;28;20024;-60
2022/01/06 03:43:00;;;;;;;1.08;0.50;;;;;;;20.28;28.65;97210.06;5069683;28;20091;-60
2022/01/06 03:45:26;;;;;;;1.00;0.60;;;;;;;20.30;28.76;97213.31;5069721;28;20036;-59
2022/01/06 03:47:52;;;;;;;1.38;0.70;;;;;;;20.30;28.66;97213.31;5069323;28;20041;-61
2022/01/06 03:50:18;;;;;;;1.45;0.85;;;;;;;20.31;28.51;97214.13;5069584;28;20033;-60
2022/01/06 03:52:45;;;;;;;1.95;0.80;;;;;;;20.32;28.53;97208.53;5069579;28;20024;-61
2022/01/06 03:55:14;;;;;;;2.40;0.82;;;;;;;20.35;28.52;97207.22;5069509;28;20025;-60
2022/01/06 03:57:40;;;;;;;0.90;0.50;;;;;;;20.34;28.63;97217.16;5069157;28;20024;-60
2022/01/06 04:00:10;;;;;;;1.98;0.70;;;;;;;20.34;28.21;97213.63;5069379;28;20246;-60
2022/01/06 04:02:36;;;;;;;2.83;0.77;;;;;;;20.35;28.44;97215.28;5069301;28;20059;-60
2022/01/06 04:05:05;;;;;;;0.80;0.60;;;;;;;20.38;28.29;97209.44;5069665;28;20212;-60
2022/01/06 04:07:32;;;;;;;0.95;0.50;;;;;;;20.40;28.27;97215.38;5069148;28;20025;-60
2022/01/06 04:09:58;;;;;;;1.27;0.45;;;;;;;20.39;28.38;97211.84;5069310;28;20028;-60
2022/01/06 04:12:24;;;;;;;1.55;0.55;;;;;;;20.42;28.46;97215.94;5068993;28;20036;-61
2022/01/06 04:14:49;;;;;;;1.13;0.50;;;;;;;20.42;28.46;97211.38;5068388;28;20096;-60
2022/01/06 04:17:15;;;;;;;0.88;0.55;;;;;;;20.43;28.30;97215.69;5068253;28;20268;-60
2022/01/06 04:19:40;;;;;;;1.00;0.57;;;;;;;20.46;28.34;97205.53;5069104;28;20036;-60
2022/01/06 04:22:06;;;;;;;2.28;0.50;;;;;;;20.47;28.27;97212.53;5068973;28;20025;-60
2022/01/06 04:24:32;;;;;;;1.90;0.65;;;;;;;20.48;28.42;97216.84;5069058;28;20032;-60
2022/01/06 04:26:58;;;;;;;1.00;0.43;;;;;;;20.50;28.28;97214.75;5068796;28;20039;-60
2022/01/06 04:29:23;;;;;;;0.85;0.40;;;;;;;20.51;28.32;97214.50;5068935;28;20059;-61
2022/01/06 04:31:49;;;;;;;0.73;0.50;;;;;;;20.52;28.08;97217.97;5068756;28;20028;-60
2022/01/06 04:34:15;;;;;;;1.88;0.60;;;;;;;20.53;28.05;97207.00;5068815;28;20114;-60
2022/01/06 04:36:47;;;;;;;1.13;0.80;;;;;;;20.56;28.21;97205.69;5068414;28;20077;-60
2022/01/06 04:39:12;;;;;;;0.40;0.30;;;;;;;20.56;28.23;97209.22;5068538;28;20049;-59
2022/01/06 04:41:38;;;;;;;2.15;0.93;;;;;;;20.58;28.18;97208.97;5068655;28;20059;-60
2022/01/06 04:44:04;;;;;;;2.70;0.60;;;;;;;20.59;28.30;97210.59;5068574;28;20037;-60
2022/01/06 04:46:29;;;;;;;1.38;0.57;;;;;;;20.61;28.29;97213.84;5068252;28;20044;-60
2022/01/06 04:48:55;;;;;;;1.90;0.40;;;;;;;20.62;27.82;97207.41;5068844;28;20202;-60
2022/01/06 04:51:20;;;;;;;1.55;0.70;;;;;;;20.64;28.18;97218.75;5068478;28;20193;-60
2022/01/06 04:53:46;;;;;;;1.77;0.70;;;;;;;20.66;28.12;97207.75;5068493;28;20092;-61
2022/01/06 04:56:11;;;;;;;2.20;0.60;;;;;;;20.66;28.17;97208.53;5068515;28;20028;-61
2022/01/06 04:58:37;;;;;;;1.10;0.60;;;;;;;20.67;28.02;97215.53;5068410;28;20025;-61
2022/01/06 05:01:03;;;;;;;1.23;0.38;;;;;;;20.70;28.16;97223.13;5068301;28;20029;-60
2022/01/06 05:03:28;;;;;;;1.02;0.50;;;;;;;20.71;28.06;97229.34;5068212;28;20051;-60
2022/01/06 05:05:54;;;;;;;1.63;0.77;;;;;;;20.71;28.32;97227.44;5068019;28;20148;-61
2022/01/06 05:08:20;;;;;;;1.30;0.60;;;;;;;20.73;28.21;97228.03;5067954;28;20045;-61
2022/01/06 05:10:45;;;;;;;1.08;0.40;;;;;;;20.75;28.13;97230.47;5068165;28;20036;-61
2022/01/06 05:13:11;;;;;;;0.73;0.40;;;;;;;20.74;27.95;97243.09;5068009;28;20166;-61
2022/01/06 05:15:36;;;;;;;1.15;0.57;;;;;;;20.76;28.05;97244.75;5067823;28;20029;-61
2022/01/06 05:18:03;;;;;;;1.60;0.50;;;;;;;20.77;28.07;97247.19;5067546;28;20142;-60
2022/01/06 05:20:30;;;;;;;1.77;0.73;;;;;;;20.79;28.18;97239.69;5067826;28;20079;-61
2022/01/06 05:22:56;;;;;;;1.58;0.70;;;;;;;20.80;28.20;97229.78;5067724;28;20025;-61
2022/01/06 05:25:26;;;;;;;2.47;1.08;;;;;;;20.81;28.10;97234.06;5067508;28;20243;-61
2022/01/06 05:27:53;;;;;;;1.83;0.80;;;;;;;20.83;28.08;97231.94;5067550;28;20021;-61
2022/01/06 05:30:19;;;;;;;0.98;0.50;;;;;;;20.85;28.13;97235.22;5067679;28;20330;-60
2022/01/06 05:32:45;;;;;;;2.10;0.77;;;;;;;20.85;28.06;97235.22;5067650;28;20032;-61
2022/01/06 05:35:10;;;;;;;1.83;0.50;;;;;;;20.87;28.18;97233.09;5067560;28;20218;-61
2022/01/06 05:37:36;;;;;;;3.55;1.17;;;;;;;20.88;28.07;97232.84;5076958;28;20048;-61
2022/01/06 05:40:03;;;;;;;2.08;0.82;;;;;;;20.91;27.90;97234.25;5087457;28;20060;-61
2022/01/06 05:42:28;;;;;;;1.92;0.70;;;;;;;20.92;28.15;97233.19;5084176;28;20049;-61
2022/01/06 05:44:54;;;;;;;4.15;1.00;;;;;;;20.93;27.90;97232.13;5067275;28;20060;-61
2022/01/06 05:47:19;;;;;;;1.65;0.70;;;;;;;20.95;27.93;97238.09;5067326;28;20035;-60
2022/01/06 05:49:45;;;;;;;1.90;0.90;;;;;;;20.96;27.99;97228.94;5067369;28;20118;-60
2022/01/06 05:52:10;;;;;;;1.42;0.80;;;;;;;20.98;28.03;97240.25;5067272;28;20063;-60
2022/01/06 05:54:36;;;;;;;1.35;0.73;;;;;;;20.99;28.01;97236.50;5067156;28;20154;-60
2022/01/06 05:57:02;;;;;;;1.80;0.82;;;;;;;21.00;27.82;97238.16;5066979;28;20142;-58
2022/01/06 05:59:29;;;;;;;1.75;0.80;;;;;;;21.02;28.00;97244.09;5067084;28;20087;-59
2022/01/06 06:01:54;;;;;;;1.90;0.93;;;;;;;21.06;27.92;97235.56;5065847;28;20017;-59
2022/01/06 06:04:20;;;;;;;2.50;1.02;;;;;;;21.09;28.03;97245.81;5066511;28;20040;-61
2022/01/06 06:06:46;;;;;;;1.70;0.82;;;;;;;21.11;27.84;97241.81;5066988;28;20024;-61
2022/01/06 06:09:11;;;;;;;3.00;1.60;;;;;;;21.14;27.95;97243.19;5067227;28;20021;-58
2022/01/06 06:11:37;;;;;;;1.73;0.82;;;;;;;21.15;28.10;97240.28;5067350;28;20157;-62
2022/01/06 06:14:03;;;;;;;2.05;0.98;;;;;;;21.17;28.19;97243.53;5066478;28;20126;-59
2022/01/06 06:16:28;;;;;;;3.78;1.25;;;;;;;21.20;28.09;97242.22;5066402;28;20040;-60
2022/01/06 06:18:54;;;;;;;2.05;1.05;;;;;;;21.22;27.86;97234.72;5066255;28;20100;-62
2022/01/06 06:21:19;;;;;;;3.20;1.05;;;;;;;21.26;28.21;97235.84;5072615;28;20035;-56
2022/01/06 06:23:45;;;;;;;5.43;1.00;;;;;;;21.30;28.34;97226.22;5078296;28;20029;-59
2022/01/06 06:26:11;;;;;;;4.57;1.40;;;;;;;21.37;28.33;97227.94;5071588;28;20032;-59
2022/01/06 06:28:36;;;;;;;5.25;1.30;;;;;;;21.38;28.16;97234.94;5070909;28;20035;-59
2022/01/06 06:31:02;;;;;;;6.28;1.80;;;;;;;21.39;28.15;97223.13;5066382;28;20146;-59
2022/01/06 06:33:28;;;;;;;4.10;1.38;;;;;;;21.43;28.17;97224.22;5082293;28;20024;-60
2022/01/06 06:35:54;;;;;;;2.20;1.17;;;;;;;21.43;28.14;97225.06;5086749;28;20024;-59
2022/01/06 06:38:19;;;;;;;4.10;1.13;;;;;;;21.44;28.17;97226.69;5085863;28;20101;-60
2022/01/06 06:40:45;;;;;;;6.00;1.10;;;;;;;21.46;28.13;97221.88;5086605;28;20316;-58
2022/01/06 06:43:12;;;;;;;2.83;1.20;;;;;;;21.48;28.13;97219.72;5074616;28;20090;-58
2022/01/06 06:45:38;;;;;;;2.83;1.27;;;;;;;21.50;28.09;97208.75;5066468;28;20024;-59
2022/01/06 06:48:04;;;;;;;4.78;1.45;;;;;;;21.54;28.15;97209.06;5066357;28;20170;-59
2022/01/06 06:50:29;;;;;;;4.15;1.35;;;;;;;21.56;28.08;97206.94;5066420;28;20044;-59
2022/01/06 06:52:55;;;;;;;6.80;2.33;;;;;;;21.60;28.15;97213.47;5065887;28;20052;-58
2022/01/06 06:55:20;;;;;;;6.10;1.70;;;;;;;21.62;28.17;97204.06;5066419;28;20680;-58
2022/01/06 06:57:46;;;;;;;2.70;1.77;;;;;;;21.65;27.94;97210.84;5066337;28;20029;-58
2022/01/06 07:00:12;;;;;;;3.13;1.50;;;;;;;21.68;28.17;97204.16;5066819;28;20029;-59
2022/01/06 07:02:38;;;;;;;5.68;1.98;;;;;;;21.73;28.30;97206.88;5065805;28;20059;-59
2022/01/06 07:05:50;;;;;;;3.40;1.90;;;;;;;21.79;28.14;97209.38;5188485;27;20223;-60
2022/01/06 07:08:16;;;;;;;5.60;2.63;;;;;;;21.87;27.71;97200.06;5187134;27;20026;-59
2022/01/06 07:10:42;;;;;;;3.55;1.70;;;;;;;21.98;27.94;97209.06;5187733;27;20018;-57
2022/01/06 07:13:09;;;;;;;5.10;2.17;;;;;;;22.05;27.72;97214.25;5187109;27;20053;-60
2022/01/06 07:15:41;;;;;;;4.05;1.60;;;;;;;22.11;27.54;97213.25;5186508;27;20026;-62
2022/01/06 07:18:07;;;;;;;4.20;2.00;;;;;;;22.15;27.63;97219.75;5186496;27;20067;-60
2022/01/06 07:20:32;;;;;;;5.35;1.90;;;;;;;22.19;27.56;97206.59;5187569;27;20026;-59
2022/01/06 07:22:57;;;;;;;7.30;1.83;;;;;;;22.23;27.40;97219.31;5186463;27;20034;-59
2022/01/06 07:25:23;;;;;;;3.65;1.40;;;;;;;22.27;27.55;97216.13;5187039;27;20288;-61
2022/01/06 07:27:48;;;;;;;4.07;2.20;;;;;;;22.29;27.34;97214.78;5173189;27;20037;-61
2022/01/06 07:30:14;;;;;;;5.07;1.98;;;;;;;22.32;27.44;97213.44;5186960;27;20131;-60
2022/01/06 07:32:47;;;;;;;5.07;1.80;;;;;;;22.36;27.36;97215.38;5186363;27;20026;-60
2022/01/06 07:35:14;;;;;;;4.05;1.92;;;;;;;22.38;26.99;97224.03;5187179;27;20019;-60
2022/01/06 07:37:40;;;;;;;4.93;2.45;;;;;;;22.43;27.14;97231.38;5186549;27;20187;-61
2022/01/06 07:40:07;;;;;;;2.90;1.50;;;;;;;22.45;27.23;97218.47;5178120;27;20018;-60
2022/01/06 07:42:32;;;;;;;3.10;1.52;;;;;;;22.47;27.08;97220.91;5174210;27;20022;-59
2022/01/06 07:45:01;;;;;;;3.00;1.50;;;;;;;22.47;27.03;97216.31;5185644;27;20141;-60
2022/01/06 07:47:28;;;;;;;4.07;1.58;;;;;;;22.50;26.94;97215.03;5186629;27;20018;-60
2022/01/06 07:49:54;;;;;;;2.42;1.45;;;;;;;22.52;27.01;97216.38;5186920;27;20041;-61
2022/01/06 07:52:21;;;;;;;3.13;1.70;;;;;;;22.53;26.99;97214.50;5185746;27;20090;-61
2022/01/06 07:54:48;;;;;;;2.20;1.50;;;;;;;22.54;26.92;97206.16;5186509;27;20026;-59
2022/01/06 07:57:14;;;;;;;3.10;1.80;;;;;;;22.58;27.01;97214.53;5186004;27;20136;-60
2022/01/06 07:59:40;;;;;;;2.90;1.55;;;;;;;22.59;27.13;97215.34;5182998;27;20030;-64
2022/01/06 08:02:05;;;;;;;3.75;1.75;;;;;;;22.46;27.17;97209.31;5184944;27;20022;-63
2022/01/06 08:04:31;;;;;;;3.25;1.48;;;;;;;22.18;27.49;97203.09;5182034;27;20048;-65
2022/01/06 08:06:56;;;;;;;3.40;1.70;;;;;;;21.90;27.71;97198.75;5185538;27;20071;-64
2022/01/06 08:09:22;;;;;;;2.90;1.15;;;;;;;21.66;28.05;97199.00;5185426;27;20022;-65
2022/01/06 08:11:47;;;;;;;3.63;1.50;;;;;;;21.49;28.11;97191.78;5185536;27;20224;-65
2022/01/06 08:14:13;;;;;;;6.50;2.10;;;;;;;21.33;28.34;97195.31;5183267;27;20149;-64
2022/01/06 08:16:38;;;;;;;2.92;1.88;;;;;;;21.23;28.28;97200.56;5174559;27;20041;-65
2022/01/06 08:19:04;;;;;;;3.30;2.15;;;;;;;21.12;28.67;97203.13;5169892;27;20179;-65
2022/01/06 08:21:29;;;;;;;3.75;2.00;;;;;;;21.06;28.91;97197.91;5171789;27;20038;-63
2022/01/06 08:23:55;;;;;;;4.95;2.58;;;;;;;20.99;29.25;97195.41;5169744;27;20023;-67
2022/01/06 08:26:20;;;;;;;5.50;2.35;;;;;;;20.74;29.22;97196.56;5171050;27;20125;-65
2022/01/06 08:28:46;;;;;;;8.25;2.20;;;;;;;20.43;29.81;97201.47;5171804;27;20071;-65
